Time;durP1;ratioP1;P1;durP2;ratioP2;P2;SDS_P1;SDS_P2;PMS_P1;PMS_P2;Temp;Humidity;BMP_temperature;BMP_pressure;BME280_temperature;BME280_humidity;BME280_pressure;Samples;Min_cycle;Max_cycle;Signal;HPM_P1;HPM_P2
2022/06/30 00:02:43;;;;;;;10.23;5.65;;;;;;;22.29;61.50;100979.13;4922056;29;20399;-52
2022/06/30 00:05:30;;;;;;;9.80;5.63;;;;;;;22.31;61.51;100980.38;4921903;29;20445;-54
2022/06/30 00:08:18;;;;;;;8.65;5.63;;;;;;;22.26;61.56;100977.03;4935590;29;21232;-54
2022/06/30 00:11:08;;;;;;;10.25;5.80;;;;;;;22.22;61.77;100979.66;4932971;29;20051;-54
2022/06/30 00:13:57;;;;;;;10.50;5.57;;;;;;;22.18;61.95;100977.91;4952527;28;20044;-49
2022/06/30 00:16:45;;;;;;;10.15;5.65;;;;;;;22.17;61.88;100967.97;4935716;29;20048;-53
2022/06/30 00:19:33;;;;;;;11.18;5.80;;;;;;;22.15;62.12;100962.75;4936671;29;20455;-51
2022/06/30 00:22:21;;;;;;;11.25;5.60;;;;;;;22.13;62.17;100960.31;4926726;29;20384;-53
2022/06/30 00:25:09;;;;;;;9.10;5.50;;;;;;;22.11;62.29;100962.63;4927070;29;20498;-54
2022/06/30 00:27:56;;;;;;;9.98;5.82;;;;;;;22.13;62.03;100962.28;4938207;29;20047;-55
2022/06/30 00:30:50;;;;;;;10.82;5.70;;;;;;;22.13;62.13;100960.31;4930462;29;20058;-55
2022/06/30 00:33:38;;;;;;;10.00;5.55;;;;;;;22.10;62.25;100960.19;4908397;29;20415;-52
2022/06/30 00:36:25;;;;;;;12.43;6.45;;;;;;;22.07;62.29;100953.34;4933705;29;20043;-51
2022/06/30 00:39:13;;;;;;;9.70;6.28;;;;;;;22.01;62.69;100951.16;4937109;29;20055;-54
2022/06/30 00:42:01;;;;;;;9.77;6.00;;;;;;;21.96;62.83;100952.19;4938627;29;20499;-50
2022/06/30 00:44:49;;;;;;;9.00;5.70;;;;;;;21.96;62.92;100946.66;4940061;29;20055;-53
2022/06/30 00:47:37;;;;;;;11.48;6.15;;;;;;;21.96;62.88;100945.81;4940613;29;20048;-54
2022/06/30 00:50:26;;;;;;;8.20;5.93;;;;;;;21.91;63.22;100941.28;4939381;29;20051;-51
2022/06/30 00:53:14;;;;;;;9.60;6.03;;;;;;;21.85;63.51;100939.91;4940127;29;20047;-53
2022/06/30 00:56:06;;;;;;;9.35;6.10;;;;;;;21.82;63.78;100940.59;4924945;29;20054;-54
2022/06/30 00:58:55;;;;;;;10.18;6.70;;;;;;;21.81;63.84;100941.72;4940466;29;20048;-55
2022/06/30 01:01:38;;;;;;;10.68;6.20;;;;;;;21.77;64.11;100944.38;4924907;29;20051;-50
2022/06/30 01:04:27;;;;;;;12.13;6.22;;;;;;;21.80;64.10;100946.47;4944696;29;20048;-54
2022/06/30 01:07:16;;;;;;;9.80;6.55;;;;;;;21.84;64.03;100941.03;4923200;29;20511;-52
2022/06/30 01:13:10;;;;;;;11.50;6.90;;;;;;;21.82;64.00;100943.34;4935888;29;20475;-52
2022/06/30 01:15:58;;;;;;;9.30;6.50;;;;;;;21.78;64.29;100950.72;4941366;28;20055;-53
2022/06/30 01:18:46;;;;;;;10.20;6.25;;;;;;;21.70;64.40;100950.47;4934926;29;20054;-50
2022/06/30 01:21:34;;;;;;;13.18;7.30;;;;;;;21.67;64.67;100953.09;4923966;29;20044;-52
2022/06/30 01:24:21;;;;;;;10.70;7.53;;;;;;;21.65;64.63;100960.97;4937428;29;20090;-54
2022/06/30 01:27:10;;;;;;;13.13;7.40;;;;;;;21.61;65.05;100957.25;4938532;29;20517;-53
2022/06/30 01:30:01;;;;;;;13.20;7.13;;;;;;;21.59;65.26;100965.91;4925579;29;20048;-52
2022/06/30 01:32:31;;;;;;;12.48;8.35;;;;;;;21.53;65.71;100963.66;4936213;29;20036;-51
2022/06/30 01:35:18;;;;;;;9.93;5.95;;;;;;;21.50;65.83;100970.69;4935020;29;20054;-52
2022/06/30 01:38:06;;;;;;;13.95;7.65;;;;;;;21.51;65.97;100966.78;4939478;29;20075;-48
2022/06/30 01:40:54;;;;;;;11.07;7.30;;;;;;;21.52;65.70;100962.84;4935590;29;20047;-52
2022/06/30 01:43:42;;;;;;;12.05;7.43;;;;;;;21.54;65.84;100963.34;4931072;29;20039;-52
2022/06/30 01:46:29;;;;;;;13.02;7.93;;;;;;;21.52;66.05;100962.84;4942828;29;20067;-52
2022/06/30 01:49:18;;;;;;;16.63;7.95;;;;;;;21.48;66.28;100968.28;4936744;29;20059;-52
2022/06/30 01:52:05;;;;;;;11.25;7.43;;;;;;;21.44;66.70;100969.28;4923734;29;20043;-54
2022/06/30 01:54:53;;;;;;;12.02;8.30;;;;;;;21.40;66.72;100963.59;4938082;29;20503;-51
2022/06/30 01:57:41;;;;;;;11.48;8.70;;;;;;;21.39;66.79;100953.69;4939408;29;20111;-52
2022/06/30 02:00:29;;;;;;;13.85;8.13;;;;;;;21.36;67.07;100962.66;4951427;29;20048;-52
2022/06/30 02:03:17;;;;;;;12.45;7.80;;;;;;;21.32;67.36;100967.22;4924893;29;20393;-52
2022/06/30 02:06:04;;;;;;;16.80;9.63;;;;;;;21.31;67.66;100962.84;4938012;29;20059;-51
2022/06/30 02:08:52;;;;;;;14.82;9.25;;;;;;;21.33;67.69;100966.06;4933729;29;20071;-54
2022/06/30 02:11:40;;;;;;;13.55;8.82;;;;;;;21.37;67.63;100969.00;4923463;29;20063;-50
2022/06/30 02:14:27;;;;;;;14.15;9.50;;;;;;;21.42;67.48;100963.28;4932088;29;20044;-50
2022/06/30 02:17:15;;;;;;;10.73;8.18;;;;;;;21.42;67.47;100974.38;4935404;29;20055;-50
2022/06/30 02:20:04;;;;;;;12.50;8.30;;;;;;;21.44;67.56;100967.31;4936155;29;20051;-53
2022/06/30 02:22:57;;;;;;;13.30;10.02;;;;;;;21.43;67.55;100959.34;4934595;29;20048;-54
2022/06/30 02:25:44;;;;;;;14.77;9.63;;;;;;;21.40;67.77;100962.78;4949697;29;20494;-55
2022/06/30 02:28:32;;;;;;;11.70;9.00;;;;;;;21.40;67.94;100965.56;4936995;29;20051;-54
2022/06/30 02:31:20;;;;;;;12.23;8.75;;;;;;;21.43;67.92;100965.72;4925092;29;20056;-54
2022/06/30 02:33:56;;;;;;;15.68;10.02;;;;;;;21.45;67.81;100970.91;4920151;29;20073;-55
2022/06/30 02:36:43;;;;;;;15.75;9.40;;;;;;;21.46;67.87;100967.00;4936759;29;20056;-55
2022/06/30 02:39:31;;;;;;;13.48;10.52;;;;;;;21.44;68.10;100967.31;4942254;29;20051;-51
2022/06/30 02:42:20;;;;;;;14.98;10.13;;;;;;;21.39;68.57;100958.38;4942090;29;20406;-55
2022/06/30 02:45:08;;;;;;;13.73;10.82;;;;;;;21.35;68.84;100946.34;4926305;29;20130;-51
2022/06/30 02:47:58;;;;;;;13.90;10.40;;;;;;;21.34;68.82;100959.41;4937049;29;20582;-51
2022/06/30 02:50:37;;;;;;;13.55;10.63;;;;;;;21.36;69.08;100953.50;4947413;28;20044;-50
2022/06/30 02:53:25;;;;;;;13.70;10.63;;;;;;;21.39;69.11;100959.22;4926037;29;20129;-51
2022/06/30 02:56:12;;;;;;;15.60;10.38;;;;;;;21.42;68.92;100958.53;4936561;29;20491;-53
2022/06/30 02:59:04;;;;;;;13.85;10.10;;;;;;;21.46;68.79;100953.94;4939592;29;20126;-52
2022/06/30 03:01:52;;;;;;;15.30;11.23;;;;;;;21.48;68.59;100950.84;4942371;29;20047;-52
2022/06/30 03:04:21;;;;;;;18.27;12.50;;;;;;;21.49;68.66;100952.44;4935861;29;20384;-51
2022/06/30 03:07:10;;;;;;;18.45;12.23;;;;;;;21.51;68.71;100944.63;4911985;29;20047;-54
2022/06/30 03:09:57;;;;;;;14.85;11.95;;;;;;;21.52;68.93;100950.97;4924507;29;20092;-53
2022/06/30 03:12:45;;;;;;;16.95;12.07;;;;;;;21.50;68.97;100954.06;4940287;29;20058;-53
2022/06/30 03:15:32;;;;;;;16.27;10.88;;;;;;;21.50;68.81;100959.59;4942646;29;20047;-51
2022/06/30 03:18:20;;;;;;;16.65;12.13;;;;;;;21.51;68.93;100955.69;4942207;29;20478;-55
2022/06/30 03:21:08;;;;;;;19.02;12.65;;;;;;;21.47;68.94;100955.56;4922066;29;20044;-52
2022/06/30 03:23:56;;;;;;;16.10;10.63;;;;;;;21.44;69.08;100960.97;4936080;29;20055;-52
2022/06/30 03:26:44;;;;;;;14.18;11.82;;;;;;;21.39;69.25;100955.59;4940828;29;20051;-52
2022/06/30 03:29:31;;;;;;;15.50;12.13;;;;;;;21.37;69.49;100955.94;4931132;29;20122;-53
2022/06/30 03:32:19;;;;;;;18.23;12.32;;;;;;;21.37;69.32;100944.03;4936222;29;20047;-53
2022/06/30 03:35:08;;;;;;;16.67;11.93;;;;;;;21.35;69.26;100954.66;4935950;29;20056;-54
2022/06/30 03:37:56;;;;;;;19.00;12.50;;;;;;;21.31;69.54;100957.31;4911133;29;20059;-51
2022/06/30 03:40:44;;;;;;;15.82;11.90;;;;;;;21.27;69.52;100959.94;4909641;29;20056;-51
2022/06/30 03:43:31;;;;;;;20.83;13.27;;;;;;;21.23;69.75;100947.88;4922485;29;20052;-51
2022/06/30 03:46:19;;;;;;;15.10;12.05;;;;;;;21.21;69.98;100933.56;4935162;29;20047;-53
2022/06/30 03:49:07;;;;;;;21.95;12.93;;;;;;;21.14;70.40;100936.06;4924909;29;20111;-53
2022/06/30 03:51:54;;;;;;;18.60;13.05;;;;;;;21.06;70.77;100936.94;4933542;29;20047;-50
2022/06/30 03:54:42;;;;;;;20.05;13.73;;;;;;;21.04;70.88;100928.13;4935764;29;20052;-53
2022/06/30 03:57:29;;;;;;;17.33;12.73;;;;;;;21.01;71.11;100939.91;4942192;29;20051;-50
2022/06/30 04:00:17;;;;;;;18.40;12.98;;;;;;;21.04;71.07;100950.31;4923346;29;20097;-53
2022/06/30 04:03:05;;;;;;;19.90;13.00;;;;;;;21.05;70.77;100932.53;4938130;29;20074;-48
2022/06/30 04:05:53;;;;;;;17.05;13.45;;;;;;;21.00;70.97;100930.78;4922715;29;20051;-52
2022/06/30 04:08:40;;;;;;;17.20;12.70;;;;;;;20.97;70.94;100927.84;4946667;29;20047;-54
2022/06/30 04:11:28;;;;;;;15.05;11.90;;;;;;;20.99;71.08;100936.66;4935366;29;20410;-51
2022/06/30 04:14:15;;;;;;;16.73;12.90;;;;;;;20.99;71.08;100944.97;4936431;29;20048;-52
2022/06/30 04:17:04;;;;;;;18.50;12.60;;;;;;;20.97;70.98;100931.47;4946528;28;20067;-52
2022/06/30 04:19:51;;;;;;;15.98;12.70;;;;;;;20.93;71.55;100929.69;4942144;29;20533;-50
2022/06/30 04:22:39;;;;;;;16.58;12.43;;;;;;;20.94;71.39;100925.78;4948393;29;20058;-51
2022/06/30 04:25:26;;;;;;;19.27;13.77;;;;;;;20.93;71.61;100921.38;4939425;29;20055;-51
2022/06/30 04:28:14;;;;;;;20.40;13.52;;;;;;;20.88;71.77;100925.16;4935728;29;20039;-52
2022/06/30 04:34:08;;;;;;;20.95;13.30;;;;;;;20.94;71.54;100928.53;4955436;29;20070;-53
2022/06/30 04:36:55;;;;;;;18.00;13.02;;;;;;;20.95;71.37;100936.53;4942146;29;20055;-53
2022/06/30 04:39:43;;;;;;;16.70;12.93;;;;;;;20.99;71.15;100937.44;4942643;29;20059;-47
2022/06/30 04:42:31;;;;;;;17.25;12.55;;;;;;;21.00;71.19;100938.28;4940820;29;20055;-51
2022/06/30 04:45:18;;;;;;;19.30;12.45;;;;;;;21.00;71.19;100932.75;4939683;29;20083;-51
2022/06/30 04:48:05;;;;;;;16.02;12.43;;;;;;;21.02;70.88;100938.75;4943997;28;20079;-51
2022/06/30 04:50:53;;;;;;;17.88;12.90;;;;;;;21.02;70.94;100933.19;4954144;29;20051;-49
2022/06/30 04:53:41;;;;;;;18.77;12.88;;;;;;;21.01;70.91;100951.78;4943476;29;20563;-53
2022/06/30 04:56:30;;;;;;;17.38;12.15;;;;;;;21.01;71.01;100948.22;4594999;29;10001345;-54
2022/06/30 04:59:18;;;;;;;15.57;12.07;;;;;;;21.02;70.93;100947.03;4938247;29;20060;-51
2022/06/30 05:02:06;;;;;;;16.80;12.23;;;;;;;21.04;71.02;100953.88;4936646;29;20454;-49
2022/06/30 05:04:53;;;;;;;14.88;11.18;;;;;;;21.12;70.62;100943.91;4936806;29;20058;-52
2022/06/30 05:07:41;;;;;;;15.30;11.20;;;;;;;21.12;70.58;100949.44;4924016;29;20070;-49
2022/06/30 05:10:29;;;;;;;17.35;13.55;;;;;;;21.12;70.77;100988.25;4931254;29;20070;-52
2022/06/30 05:13:08;;;;;;;16.92;12.55;;;;;;;21.08;71.03;100954.03;4964219;28;20058;-50
2022/06/30 05:15:55;;;;;;;16.67;12.52;;;;;;;21.03;71.42;100954.22;4939094;29;20048;-53
2022/06/30 05:18:43;;;;;;;18.50;12.40;;;;;;;21.05;71.43;100961.06;4943855;28;20051;-53
2022/06/30 05:21:15;;;;;;;14.77;9.18;;;;;;;21.09;71.01;100955.63;4920712;29;20080;-53
2022/06/30 05:27:08;;;;;;;12.30;8.60;;;;;;;21.05;71.85;100960.25;4827949;29;20570;-49
2022/06/30 05:29:55;;;;;;;15.88;8.05;;;;;;;21.12;71.66;100982.69;4922109;29;20083;-50
2022/06/30 05:32:44;;;;;;;17.40;9.02;;;;;;;21.16;71.70;100971.75;4923016;29;20112;-54
2022/06/30 05:35:32;;;;;;;12.10;8.68;;;;;;;21.21;71.47;100958.53;4936675;29;20063;-53
2022/06/30 05:38:19;;;;;;;18.25;11.40;;;;;;;21.20;72.03;100973.50;4939452;29;20463;-50
2022/06/30 05:41:07;;;;;;;15.32;10.57;;;;;;;21.14;72.62;100957.41;4911512;29;20055;-49
2022/06/30 05:43:55;;;;;;;19.58;11.70;;;;;;;21.08;73.34;100967.09;4934719;29;20067;-50
2022/06/30 05:46:43;;;;;;;17.30;11.02;;;;;;;21.06;73.66;100965.44;4936750;29;20071;-49
2022/06/30 05:49:18;;;;;;;16.27;9.82;;;;;;;21.09;73.82;100960.38;4937866;29;20044;-51
2022/06/30 05:52:06;;;;;;;20.05;12.40;;;;;;;21.13;74.22;100961.34;4929315;29;20056;-51
2022/06/30 05:54:56;;;;;;;14.80;10.40;;;;;;;21.17;73.91;100965.88;4925385;29;20447;-53
2022/06/30 05:57:52;;;;;;;15.75;12.43;;;;;;;21.15;73.80;100953.50;4944166;29;20055;-48
2022/06/30 06:00:39;;;;;;;21.20;14.70;;;;;;;21.07;75.62;100963.50;4934857;29;20059;-53
2022/06/30 06:03:27;;;;;;;21.50;14.32;;;;;;;20.97;76.38;100958.31;4939308;29;20047;-48
2022/06/30 06:06:15;;;;;;;19.40;15.38;;;;;;;20.91;76.97;100959.69;4939355;29;20051;-52
2022/06/30 06:09:02;;;;;;;14.32;9.45;;;;;;;20.91;76.62;100957.72;4945420;29;20063;-51
2022/06/30 06:11:50;;;;;;;21.40;14.60;;;;;;;20.92;77.33;100972.38;4939343;29;20533;-52
2022/06/30 06:14:38;;;;;;;18.98;15.25;;;;;;;20.94;77.67;100976.44;4939438;29;20439;-52
2022/06/30 06:17:25;;;;;;;19.60;14.07;;;;;;;20.92;78.33;100966.84;4938769;29;20055;-52
2022/06/30 06:20:15;;;;;;;21.15;14.02;;;;;;;20.93;78.87;100974.81;4944372;29;20506;-54
2022/06/30 06:23:03;;;;;;;26.25;16.42;;;;;;;20.95;78.76;100971.69;4930478;29;20047;-51
2022/06/30 06:25:51;;;;;;;22.15;15.45;;;;;;;20.87;79.54;100975.34;4923661;29;20060;-52
2022/06/30 06:31:44;;;;;;;22.42;16.77;;;;;;;20.80;80.42;100982.19;4937504;29;20047;-53
2022/06/30 06:34:32;;;;;;;25.73;18.23;;;;;;;20.70;80.61;100977.03;4938319;29;20058;-49
2022/06/30 06:37:20;;;;;;;22.40;17.80;;;;;;;20.68;81.28;100987.63;4937247;29;20043;-51
2022/06/30 06:40:08;;;;;;;24.05;16.67;;;;;;;20.60;82.22;100992.06;4936890;29;20055;-50
2022/06/30 06:42:56;;;;;;;23.90;16.67;;;;;;;20.63;81.78;100998.91;4940537;29;20482;-53
2022/06/30 06:45:43;;;;;;;20.90;15.68;;;;;;;20.62;82.28;100987.03;4945186;29;20414;-51
2022/06/30 06:48:31;;;;;;;21.45;17.17;;;;;;;20.73;81.67;100992.19;4941608;29;20052;-50
2022/06/30 06:51:20;;;;;;;22.48;16.05;;;;;;;20.72;82.02;100996.09;4940386;29;20039;-50
2022/06/30 06:54:08;;;;;;;18.75;14.10;;;;;;;20.67;82.03;101001.84;4928981;29;20047;-53
2022/06/30 06:56:56;;;;;;;20.83;16.25;;;;;;;20.69;81.53;100997.59;4939365;29;20047;-51
2022/06/30 06:59:43;;;;;;;23.67;16.00;;;;;;;20.75;80.85;101004.53;4934607;29;20062;-52
2022/06/30 07:02:31;;;;;;;23.50;15.15;;;;;;;20.80;80.32;100998.81;4936880;29;20059;-50
2022/06/30 07:05:18;;;;;;;20.83;13.43;;;;;;;20.85;80.00;101006.97;4939022;29;20524;-51
2022/06/30 07:08:06;;;;;;;22.45;15.88;;;;;;;20.89;80.25;101006.28;4936400;29;20060;-50
2022/06/30 07:10:56;;;;;;;22.98;13.68;;;;;;;20.96;79.17;101006.59;4937991;29;20047;-48
2022/06/30 07:13:44;;;;;;;24.00;14.85;;;;;;;20.97;79.55;101016.50;4942002;29;20047;-49
2022/06/30 07:16:32;;;;;;;23.25;15.60;;;;;;;20.87;79.59;101022.44;4934686;29;20039;-48
2022/06/30 07:19:20;;;;;;;18.85;13.60;;;;;;;20.82;79.85;101032.53;4911915;29;20455;-52
2022/06/30 07:22:07;;;;;;;19.60;13.27;;;;;;;20.77;80.70;101032.72;4936063;29;20101;-50
2022/06/30 07:24:36;;;;;;;23.60;15.00;;;;;;;20.77;80.63;101043.81;4941252;29;20395;-50
2022/06/30 07:27:24;;;;;;;20.20;13.35;;;;;;;20.73;80.05;101045.59;4936601;29;20051;-50
2022/06/30 07:30:11;;;;;;;19.17;12.57;;;;;;;20.78;79.09;101050.16;4935946;29;20051;-51
2022/06/30 07:33:00;;;;;;;21.30;13.23;;;;;;;20.87;78.91;101045.38;4936010;29;20053;-48
2022/06/30 07:35:54;;;;;;;16.58;11.50;;;;;;;20.90;77.71;101064.13;4950716;28;20040;-49
2022/06/30 07:38:44;;;;;;;22.80;12.13;;;;;;;20.80;78.58;101065.28;4940378;29;20389;-49
2022/06/30 07:41:32;;;;;;;17.20;10.25;;;;;;;20.87;78.58;101069.50;4939339;29;20052;-46
2022/06/30 07:44:20;;;;;;;18.80;10.23;;;;;;;20.91;77.49;101064.94;4923623;29;20039;-47
2022/06/30 07:47:08;;;;;;;17.40;9.75;;;;;;;20.92;77.52;101074.88;4938742;29;20514;-48
2022/06/30 07:49:55;;;;;;;19.67;9.27;;;;;;;21.00;77.63;101085.13;4926825;29;20048;-50
2022/06/30 07:52:44;;;;;;;15.63;8.63;;;;;;;20.98;77.86;101085.44;4935513;29;20040;-49
2022/06/30 07:55:32;;;;;;;19.15;8.52;;;;;;;20.96;78.40;101086.91;4925295;29;20048;-49
2022/06/30 07:58:19;;;;;;;13.38;8.07;;;;;;;20.96;78.33;101084.94;4935342;29;20047;-47
2022/06/30 08:01:07;;;;;;;20.00;8.18;;;;;;;20.98;77.86;101084.63;4938802;29;20051;-47
2022/06/30 08:04:01;;;;;;;14.50;7.90;;;;;;;20.93;77.51;101079.28;4938328;29;20131;-46
2022/06/30 08:06:49;;;;;;;18.00;8.45;;;;;;;20.91;77.47;101076.03;4921945;29;20044;-48
2022/06/30 08:09:36;;;;;;;16.00;8.00;;;;;;;20.87;78.26;101086.94;4932890;29;20052;-48
2022/06/30 08:12:06;;;;;;;16.85;7.85;;;;;;;20.89;78.48;101073.56;4926743;29;20047;-49
2022/06/30 08:14:54;;;;;;;12.95;6.15;;;;;;;21.01;78.32;101070.91;4936213;29;20052;-51
2022/06/30 08:17:42;;;;;;;18.05;8.50;;;;;;;21.06;77.78;101075.47;4935804;29;20047;-49
2022/06/30 08:20:30;;;;;;;21.73;7.97;;;;;;;21.10;78.59;101065.34;4944314;29;20415;-49
2022/06/30 08:23:17;;;;;;;17.98;8.30;;;;;;;21.16;78.36;101066.75;4936935;29;20051;-48
2022/06/30 08:26:05;;;;;;;16.60;8.23;;;;;;;21.19;77.14;101065.28;4935502;29;20110;-51
2022/06/30 08:28:52;;;;;;;19.10;8.48;;;;;;;21.21;76.81;101069.38;4922680;29;20055;-52
2022/06/30 08:31:41;;;;;;;17.13;8.63;;;;;;;21.23;77.48;101061.50;4935431;29;20141;-53
2022/06/30 08:34:28;;;;;;;14.45;8.25;;;;;;;21.22;75.88;101065.44;4937881;29;20662;-54
2022/06/30 08:37:16;;;;;;;21.42;9.02;;;;;;;21.23;74.66;101067.06;4938117;29;20047;-47
2022/06/30 08:43:10;;;;;;;18.33;7.50;;;;;;;21.27;73.45;101062.47;4944440;29;20051;-51
2022/06/30 08:46:00;;;;;;;14.90;6.97;;;;;;;21.32;73.13;101058.69;4924635;29;20491;-52
2022/06/30 08:48:48;;;;;;;14.20;7.32;;;;;;;21.38;73.88;101059.31;4934686;29;20055;-52
2022/06/30 08:51:36;;;;;;;14.88;7.15;;;;;;;21.44;73.58;101060.78;4953009;28;20407;-53
2022/06/30 08:54:29;;;;;;;17.35;7.72;;;;;;;21.47;73.54;101065.66;4917951;29;20131;-51
2022/06/30 08:57:16;;;;;;;16.02;7.82;;;;;;;21.49;71.64;101071.66;4936910;29;20048;-55
2022/06/30 08:59:44;;;;;;;13.32;6.82;;;;;;;21.54;72.39;101076.22;4927166;29;20056;-55
2022/06/30 09:02:32;;;;;;;12.05;6.40;;;;;;;21.59;71.71;101071.25;4921991;29;20070;-52
2022/06/30 09:05:20;;;;;;;13.88;6.55;;;;;;;21.67;71.24;101061.25;4923742;29;20048;-50
2022/06/30 09:08:08;;;;;;;16.83;6.45;;;;;;;21.73;71.55;101067.44;4938382;29;20487;-50
2022/06/30 09:11:11;;;;;;;15.18;6.95;;;;;;;21.76;72.14;101063.97;4926773;29;20121;-50
2022/06/30 09:14:00;;;;;;;17.48;7.63;;;;;;;21.76;73.16;101072.28;4941081;29;20050;-54
2022/06/30 09:16:53;;;;;;;12.95;7.00;;;;;;;21.77;73.28;101068.34;4938202;29;20061;-49
2022/06/30 09:19:52;;;;;;;18.15;6.30;;;;;;;21.79;72.16;101071.63;4943440;29;20139;-50
2022/06/30 09:22:42;;;;;;;17.35;6.85;;;;;;;21.78;72.09;101078.31;4938966;29;20058;-49
2022/06/30 09:25:30;;;;;;;11.65;5.60;;;;;;;21.82;71.81;101070.97;4942440;29;20068;-50
2022/06/30 09:28:47;;;;;;;9.65;5.63;;;;;;;21.83;71.66;101078.13;4938906;29;20056;-55
2022/06/30 09:31:56;;;;;;;12.23;5.75;;;;;;;21.87;71.55;101076.28;4932631;29;20058;-47
2022/06/30 09:34:44;;;;;;;12.95;5.85;;;;;;;21.93;70.77;101072.16;4942221;29;20048;-50
2022/06/30 09:37:33;;;;;;;16.00;6.15;;;;;;;21.96;70.11;101077.03;4936066;29;20138;-49
2022/06/30 09:40:31;;;;;;;13.52;5.78;;;;;;;21.96;70.10;101077.03;4951929;28;20050;-50
2022/06/30 09:43:30;;;;;;;12.85;5.72;;;;;;;22.02;70.13;101086.78;4939649;29;20051;-52
2022/06/30 09:46:18;;;;;;;11.27;5.60;;;;;;;22.05;69.72;101080.53;4922027;29;20111;-52
2022/06/30 09:49:06;;;;;;;12.30;5.13;;;;;;;22.08;69.62;101079.03;4939088;29;20048;-51
2022/06/30 09:51:53;;;;;;;13.57;5.90;;;;;;;22.13;69.14;101076.09;4935281;29;20062;-51
2022/06/30 09:54:54;;;;;;;11.80;5.60;;;;;;;22.17;68.34;101077.00;4924899;29;20055;-51
2022/06/30 09:57:43;;;;;;;12.35;5.40;;;;;;;22.20;67.46;101081.06;4933989;29;20056;-51
2022/06/30 10:00:30;;;;;;;16.83;5.95;;;;;;;22.22;68.17;101078.78;4919157;29;20530;-50
2022/06/30 10:03:20;;;;;;;12.50;5.70;;;;;;;22.26;68.36;101082.50;4934305;29;20040;-48
2022/06/30 10:06:12;;;;;;;15.77;5.55;;;;;;;22.31;68.11;101085.06;4925804;29;20047;-48
2022/06/30 10:08:59;;;;;;;14.23;5.75;;;;;;;22.35;68.24;101091.56;4940317;29;20067;-53
2022/06/30 10:11:47;;;;;;;15.38;5.40;;;;;;;22.37;66.77;101094.00;4935886;29;20040;-51
2022/06/30 10:14:37;;;;;;;13.23;5.45;;;;;;;22.43;66.14;101092.63;4939042;29;20047;-51
2022/06/30 10:17:27;;;;;;;13.88;5.63;;;;;;;22.46;63.92;101101.09;4941260;29;20063;-52
2022/06/30 10:20:15;;;;;;;12.20;6.07;;;;;;;22.44;63.26;101095.09;4915521;29;20051;-52
2022/06/30 10:23:04;;;;;;;14.77;7.22;;;;;;;22.45;64.06;101096.69;4934168;29;20043;-56
2022/06/30 10:25:54;;;;;;;15.82;6.35;;;;;;;22.47;64.05;101085.25;4936817;29;20051;-50
2022/06/30 10:28:42;;;;;;;13.43;5.47;;;;;;;22.51;64.40;101080.63;4941745;29;20044;-53
2022/06/30 10:31:40;;;;;;;14.25;6.95;;;;;;;22.57;65.95;101087.59;4937228;29;20415;-54
2022/06/30 10:34:40;;;;;;;15.77;7.25;;;;;;;22.59;66.23;101084.47;4930220;29;20051;-50
2022/06/30 10:37:17;;;;;;;16.08;8.20;;;;;;;22.59;66.23;101090.84;4906703;29;20510;-51
2022/06/30 10:40:11;;;;;;;16.58;8.07;;;;;;;22.57;67.01;101079.25;4928273;29;20055;-54
2022/06/30 10:42:59;;;;;;;19.08;7.32;;;;;;;22.59;67.66;101071.41;4923101;29;20044;-51
2022/06/30 10:45:58;;;;;;;16.60;7.40;;;;;;;22.67;68.38;101062.16;4922961;29;20432;-50
2022/06/30 10:48:54;;;;;;;16.05;7.68;;;;;;;22.70;67.37;101072.56;4941132;29;20051;-52
2022/06/30 10:51:42;;;;;;;17.15;8.20;;;;;;;22.75;66.72;101072.38;4926969;29;20067;-50
2022/06/30 10:54:32;;;;;;;15.65;6.90;;;;;;;22.77;66.41;101067.25;4934388;29;20083;-51
2022/06/30 10:57:21;;;;;;;11.32;5.95;;;;;;;22.83;66.27;101067.84;4923888;29;20039;-50
2022/06/30 11:00:42;;;;;;;14.18;6.35;;;;;;;22.84;65.79;101065.88;4936718;29;20407;-51
2022/06/30 11:03:34;;;;;;;17.35;6.35;;;;;;;22.87;65.91;101065.97;4937341;29;20483;-51
2022/06/30 11:06:23;;;;;;;11.82;5.00;;;;;;;22.90;63.09;101059.75;4938436;29;20126;-53
2022/06/30 11:09:10;;;;;;;15.27;6.03;;;;;;;22.95;62.50;101053.97;4924584;29;20051;-51
2022/06/30 11:11:58;;;;;;;15.20;6.35;;;;;;;22.99;63.00;101056.88;4937327;29;20044;-54
2022/06/30 11:14:52;;;;;;;14.02;6.25;;;;;;;23.00;62.95;101052.16;4944132;29;20055;-50
2022/06/30 11:17:40;;;;;;;13.73;5.72;;;;;;;23.01;63.73;101051.00;4940967;29;20051;-50
2022/06/30 11:20:28;;;;;;;14.10;6.43;;;;;;;23.06;63.69;101050.75;4940539;29;20059;-52
2022/06/30 11:23:16;;;;;;;14.63;6.70;;;;;;;23.10;63.81;101054.47;4935092;29;20051;-55
2022/06/30 11:29:16;;;;;;;17.50;7.05;;;;;;;23.05;62.63;101060.25;4936898;29;20059;-56
2022/06/30 11:32:04;;;;;;;13.07;5.50;;;;;;;23.01;62.43;101059.31;4919951;29;20067;-54
2022/06/30 11:34:52;;;;;;;14.27;4.70;;;;;;;23.01;61.08;101057.34;4938674;29;20044;-51
2022/06/30 11:37:40;;;;;;;10.00;4.60;;;;;;;23.09;60.45;101056.44;4923579;29;20052;-52
2022/06/30 11:40:31;;;;;;;14.20;4.38;;;;;;;23.21;59.95;101036.16;4941676;29;20052;-50
2022/06/30 11:43:21;;;;;;;10.43;4.55;;;;;;;23.25;59.71;101044.59;4945622;29;20056;-53
2022/06/30 11:46:12;;;;;;;12.25;5.72;;;;;;;23.21;59.71;101052.84;4925237;29;20058;-50
2022/06/30 11:49:04;;;;;;;11.38;5.07;;;;;;;23.16;60.33;101055.84;4922933;29;20047;-51
2022/06/30 11:51:52;;;;;;;13.90;4.80;;;;;;;23.10;59.77;101049.72;4937579;29;20070;-51
2022/06/30 11:54:43;;;;;;;15.77;4.20;;;;;;;23.08;60.74;101042.88;4924590;29;20455;-49
2022/06/30 11:57:33;;;;;;;9.48;4.05;;;;;;;23.11;60.61;101026.31;4928618;29;20051;-51
2022/06/30 12:00:23;;;;;;;12.57;4.35;;;;;;;23.18;60.86;101031.28;4927630;29;20487;-53
2022/06/30 12:03:14;;;;;;;11.65;4.65;;;;;;;23.28;60.87;101024.44;4906203;29;20443;-49
2022/06/30 12:06:01;;;;;;;10.25;4.70;;;;;;;23.32;60.10;101020.63;4931203;29;20052;-51
2022/06/30 12:08:49;;;;;;;8.50;3.88;;;;;;;23.34;60.59;101028.63;4935971;29;20064;-51
2022/06/30 12:11:38;;;;;;;10.45;4.95;;;;;;;23.25;60.30;101019.59;4920767;29;20099;-50
2022/06/30 12:14:26;;;;;;;9.43;4.43;;;;;;;23.21;60.40;101018.66;4935089;29;20052;-49
2022/06/30 12:17:14;;;;;;;8.82;4.05;;;;;;;23.17;60.94;101013.00;4924236;29;20039;-49
2022/06/30 12:20:03;;;;;;;8.70;4.28;;;;;;;23.13;60.43;101004.53;4924131;29;20046;-50
2022/06/30 12:22:52;;;;;;;10.77;3.92;;;;;;;23.09;60.33;101000.03;4937029;29;20043;-49
2022/06/30 12:25:41;;;;;;;9.00;3.42;;;;;;;23.09;58.70;100997.25;4924329;29;20438;-51
2022/06/30 12:28:28;;;;;;;11.35;4.45;;;;;;;23.10;59.23;100994.13;4945362;28;20047;-47
2022/06/30 12:31:00;;;;;;;9.68;4.70;;;;;;;23.14;59.60;100992.28;4937870;29;20095;-46
2022/06/30 12:33:48;;;;;;;10.07;4.18;;;;;;;23.17;59.53;100976.88;4936708;29;20103;-48
2022/06/30 12:36:36;;;;;;;11.40;5.22;;;;;;;23.23;60.72;100982.97;4944747;29;20518;-48
2022/06/30 12:39:24;;;;;;;13.05;5.90;;;;;;;23.25;60.86;100978.69;4942780;29;20050;-48
2022/06/30 12:42:12;;;;;;;13.63;5.88;;;;;;;23.27;60.61;100967.22;4947172;29;20423;-48
2022/06/30 12:45:00;;;;;;;14.93;5.10;;;;;;;23.27;60.79;100962.47;4941791;29;20040;-45
2022/06/30 12:47:48;;;;;;;12.70;5.65;;;;;;;23.33;61.70;100969.41;4935955;29;20081;-46
2022/06/30 12:50:37;;;;;;;11.93;5.93;;;;;;;23.36;61.32;100956.78;4917945;29;20055;-48
2022/06/30 12:53:27;;;;;;;15.45;5.78;;;;;;;23.39;61.68;100953.28;4924534;29;20091;-48
2022/06/30 12:56:23;;;;;;;15.80;5.93;;;;;;;23.44;61.63;100943.91;4944968;28;20051;-49
2022/06/30 12:59:17;;;;;;;13.40;6.40;;;;;;;23.41;61.72;100950.97;4931457;29;20054;-51
2022/06/30 13:02:05;;;;;;;11.55;5.30;;;;;;;23.45;60.85;100939.94;4934288;29;20052;-49
2022/06/30 13:04:56;;;;;;;13.48;6.43;;;;;;;23.47;61.47;100943.19;4938076;29;20526;-46
2022/06/30 13:07:43;;;;;;;13.60;5.78;;;;;;;23.58;62.03;100944.31;4939891;29;20047;-46
2022/06/30 13:13:38;;;;;;;15.15;5.85;;;;;;;23.60;58.88;100950.34;4940298;29;20043;-46